الصفحة الرئيسية
METAR-TAF:

METAR-TAF

مطار :

أوليانوفسك, روسيا

دائرة عرض: 54-21N, خط طول: 048-23E, ارتفاع: 77 متر

مراقبة الطقس الحالي

تاريخ ووقت الإصدار 21 دقيقة قبل الساعة 22:00UTC
ريح 12 عقدة من الشمال/الشمال الغربي
درجة الحرارة 12°درجة مئوية
الرطوبة 71%
ضغط 1004 hPa
الرؤية 10 كم أو أكثر
الغيوم لا تقل 1500 م ولا وجود لمزنة ركامية السحاب الأسود

METAR: UWLW 242200Z 33006MPS CAVOK 12/07 Q1004 R02/CLRD60 NOSIG RMK QFE746/0995

زمن: 01:21 (22:21 UTC)

توقعات

تاريخ ووقت الإصدار 2ساعات و 33 دقيقة قبل الساعة 19:48UTC
التوقعات صالحة من24 الساعة 21 UTC إلى 25 الساعة 21 UTC
ريح 12 عقدة من الشمال تتزايد حتى 23 عقدة
الرؤية 10 كم أو أكثر
غيوم مفككة على ارتفاع 3000 قدم
مؤقت
من 24 الساعة 21 UTC إلى 25 الساعة 03 UTC
ريح 16 عقدة من الشمال الغربي تتزايد حتى 27 عقدة
غيوم مفككة على ارتفاع 1600 قدم, مزنة ركامية.
مؤقت
من 25 الساعة 06 UTC إلى 25 الساعة 15 UTC
ريح 16 عقدة من الشمال الغربي تتزايد حتى 29 عقدة

TAF: UWLW 241948Z 2421/2521 35006G12MPS 9999 BKN030 TX20/2512Z TN11/2502Z TEMPO 2421/2503 32008G14MPS BKN016CB TEMPO 2506/2515 32008G15MPS

أرصاد الطقس والتوقعات من أكثر من 4000 مطار (تقارير الطقس للمطار METAR والتنبؤ بالطقس بالمطارTAF).

المحطات المتاحة هي النقط الصفراء والحمراء على الخريطة.

حرك المؤشر فوق النقطة لمعرفة اسم المحطة.

ثم انقر لمعرفة أرصاد وتوقعات الطقس.

لتغيير الخارطة: اضغط على الأزرار الخضراء مع رمز الصليب الأسود للتكبير. على الزر الأخضر مع شرطة للتصغير، أو على الأسهم الخضراء للخرائط المجاورة.


METAR-TAF: